Time;durP1;ratioP1;P1;durP2;ratioP2;P2;SDS_P1;SDS_P2;PMS_P1;PMS_P2;Temp;Humidity;BMP_temperature;BMP_pressure;BME280_temperature;BME280_humidity;BME280_pressure;Samples;Min_cycle;Max_cycle;Signal;HPM_P1;HPM_P2
2021/12/01 00:00:21;;;;;;;;;;;12.40;99.90;;;;;;4985111;28;19958;-74
2021/12/01 00:02:52;;;;;;;;;;;11.90;99.90;;;;;;4988758;28;19926;-74
2021/12/01 00:05:18;;;;;;;;;;;11.70;99.90;;;;;;4985796;28;20354;-74
2021/12/01 00:07:44;;;;;;;;;;;11.00;99.90;;;;;;4989814;28;20381;-73
2021/12/01 00:10:10;;;;;;;;;;;11.60;99.90;;;;;;4989236;28;19976;-74
2021/12/01 00:12:35;;;;;;;;;;;11.00;99.90;;;;;;4990110;28;20363;-74
2021/12/01 00:15:02;;;;;;;;;;;13.70;99.90;;;;;;4990768;28;19926;-73
2021/12/01 00:17:28;;;;;;;;;;;12.10;99.90;;;;;;4990084;28;20327;-74
2021/12/01 00:19:53;;;;;;;;;;;12.00;99.90;;;;;;4987581;28;19972;-74
2021/12/01 00:22:19;;;;;;;;;;;11.30;99.90;;;;;;4985273;28;20267;-74
2021/12/01 00:24:45;;;;;;;;;;;12.00;99.90;;;;;;4990641;28;20353;-75
2021/12/01 00:27:10;;;;;;;;;;;11.50;99.90;;;;;;4994638;28;20313;-74
2021/12/01 00:29:37;;;;;;;;;;;11.20;99.90;;;;;;4990765;28;19934;-73
2021/12/01 00:32:03;;;;;;;;;;;11.40;99.90;;;;;;4987323;28;20359;-75
2021/12/01 00:34:29;;;;;;;;;;;11.60;99.90;;;;;;4987025;28;20406;-75
2021/12/01 00:36:55;;;;;;;;;;;11.60;99.90;;;;;;4990355;28;19926;-73
2021/12/01 00:39:20;;;;;;;;;;;11.70;99.90;;;;;;4987785;28;19934;-75
2021/12/01 00:41:48;;;;;;;;;;;11.60;99.90;;;;;;4989320;28;19949;-73
2021/12/01 00:44:13;;;;;;;;;;;11.10;99.90;;;;;;4990359;28;19933;-73
2021/12/01 00:46:53;;;;;;;;;;;11.50;99.90;;;;;;4986383;28;19930;-74
2021/12/01 00:49:18;;;;;;;;;;;12.60;99.90;;;;;;4989720;28;20438;-73
2021/12/01 00:51:44;;;;;;;;;;;13.90;99.90;;;;;;4990963;28;19933;-73
2021/12/01 00:54:10;;;;;;;;;;;11.20;99.90;;;;;;4990442;28;20271;-74
2021/12/01 00:56:35;;;;;;;;;;;11.20;99.90;;;;;;4986168;28;19926;-73
2021/12/01 00:59:01;;;;;;;;;;;11.20;99.90;;;;;;4987645;28;19949;-73
2021/12/01 01:01:26;;;;;;;;;;;11.30;99.90;;;;;;4986695;28;19973;-73
2021/12/01 01:03:52;;;;;;;;;;;12.40;99.90;;;;;;4987454;28;20395;-73
2021/12/01 01:06:18;;;;;;;;;;;11.20;99.90;;;;;;4988924;28;20008;-73
2021/12/01 01:08:45;;;;;;;;;;;12.00;99.90;;;;;;4985988;28;20388;-73
2021/12/01 01:16:22;;;;;;;;;;;13.50;99.90;;;;;;4970973;28;19926;-73
2021/12/01 01:16:45;;;;;;;;;;;11.20;99.90;;;;;;4990077;28;19952;-74
2021/12/01 01:19:12;;;;;;;;;;;11.90;99.90;;;;;;4988917;28;19926;-73
2021/12/01 01:21:41;;;;;;;;;;;11.20;99.90;;;;;;4988336;28;19926;-73
2021/12/01 01:24:07;;;;;;;;;;;11.50;99.90;;;;;;4990115;28;19930;-73
2021/12/01 01:26:35;;;;;;;;;;;11.70;99.90;;;;;;4988684;28;19929;-81
2021/12/01 01:29:01;;;;;;;;;;;11.20;99.90;;;;;;4989808;28;20012;-72
2021/12/01 01:31:27;;;;;;;;;;;11.80;99.90;;;;;;4990784;28;20021;-73
2021/12/01 01:33:52;;;;;;;;;;;11.80;99.90;;;;;;4992032;28;20463;-73
2021/12/01 01:36:18;;;;;;;;;;;11.80;99.90;;;;;;4992714;28;19929;-74
2021/12/01 01:38:44;;;;;;;;;;;11.50;99.90;;;;;;4991569;28;19957;-79
2021/12/01 01:41:11;;;;;;;;;;;12.50;99.90;;;;;;4991977;28;19926;-74
2021/12/01 01:43:37;;;;;;;;;;;13.40;99.90;;;;;;4992697;28;19933;-74
2021/12/01 01:46:03;;;;;;;;;;;11.20;99.90;;;;;;4992051;28;20116;-74
2021/12/01 01:48:31;;;;;;;;;;;11.20;99.90;;;;;;4993344;28;20320;-74
2021/12/01 01:50:57;;;;;;;;;;;11.90;99.90;;;;;;4990229;28;20080;-73
2021/12/01 01:53:25;;;;;;;;;;;12.30;99.90;;;;;;4993161;28;20373;-74
2021/12/01 01:55:55;;;;;;;;;;;11.80;99.90;;;;;;4991258;28;19937;-74
2021/12/01 01:58:24;;;;;;;;;;;11.80;99.90;;;;;;4993990;28;19933;-73
2021/12/01 02:01:04;;;;;;;;;;;12.50;99.90;;;;;;4987905;28;20017;-74
2021/12/01 02:03:29;;;;;;;;;;;13.00;99.90;;;;;;4992955;28;19934;-73
2021/12/01 02:05:56;;;;;;;;;;;11.40;99.90;;;;;;4991200;28;20163;-73
2021/12/01 02:08:29;;;;;;;;;;;11.20;99.90;;;;;;4989868;28;20341;-74
2021/12/01 02:10:56;;;;;;;;;;;11.20;99.90;;;;;;4985882;28;20371;-75
2021/12/01 02:13:21;;;;;;;;;;;11.20;99.90;;;;;;4991248;28;19922;-77
2021/12/01 02:15:48;;;;;;;;;;;12.50;99.90;;;;;;4992792;28;20381;-77
2021/12/01 02:18:14;;;;;;;;;;;11.70;99.90;;;;;;4993158;28;19952;-77
2021/12/01 02:20:40;;;;;;;;;;;12.50;99.90;;;;;;4992213;28;19931;-77
2021/12/01 02:23:06;;;;;;;;;;;11.90;99.90;;;;;;4993291;28;19954;-77
2021/12/01 02:25:32;;;;;;;;;;;11.80;99.90;;;;;;4994135;28;20029;-77
2021/12/01 02:27:57;;;;;;;;;;;11.50;99.90;;;;;;4993502;28;20186;-77
2021/12/01 02:30:23;;;;;;;;;;;11.90;99.90;;;;;;4993745;28;20357;-77
2021/12/01 02:32:50;;;;;;;;;;;12.50;99.90;;;;;;4993591;28;19953;-77
2021/12/01 02:35:15;;;;;;;;;;;11.60;99.90;;;;;;4993745;28;19972;-77
2021/12/01 02:37:41;;;;;;;;;;;11.80;99.90;;;;;;4993583;28;19969;-77
2021/12/01 02:40:07;;;;;;;;;;;12.40;99.90;;;;;;4993865;28;20043;-77
2021/12/01 02:42:33;;;;;;;;;;;11.90;99.90;;;;;;4993365;28;20377;-77
2021/12/01 02:44:58;;;;;;;;;;;12.00;99.90;;;;;;4992970;28;19989;-77
2021/12/01 02:47:28;;;;;;;;;;;11.60;99.90;;;;;;4993954;28;19933;-77
2021/12/01 02:49:55;;;;;;;;;;;11.70;99.90;;;;;;4992186;28;20024;-79
2021/12/01 02:52:23;;;;;;;;;;;11.90;99.90;;;;;;4993556;28;19926;-77
2021/12/01 02:54:49;;;;;;;;;;;11.90;99.90;;;;;;4993551;28;20072;-77
2021/12/01 02:57:15;;;;;;;;;;;11.40;99.90;;;;;;4993459;28;20383;-76
2021/12/01 02:59:41;;;;;;;;;;;12.40;99.90;;;;;;4992502;28;20017;-81
2021/12/01 03:02:07;;;;;;;;;;;11.50;99.90;;;;;;4992206;28;19929;-76
2021/12/01 03:04:34;;;;;;;;;;;11.60;99.90;;;;;;4992803;28;19925;-77
2021/12/01 03:07:00;;;;;;;;;;;12.10;99.90;;;;;;4990483;28;19948;-76
2021/12/01 03:09:26;;;;;;;;;;;11.80;99.90;;;;;;4992494;28;20028;-78
2021/12/01 03:11:52;;;;;;;;;;;11.60;99.90;;;;;;4989937;28;19996;-76
2021/12/01 03:14:18;;;;;;;;;;;11.70;99.90;;;;;;4991567;28;20383;-77
2021/12/01 03:16:47;;;;;;;;;;;11.80;99.90;;;;;;4990728;28;19934;-77
2021/12/01 03:19:12;;;;;;;;;;;11.70;99.90;;;;;;4991046;28;20371;-77
2021/12/01 03:21:38;;;;;;;;;;;12.20;99.90;;;;;;4993437;28;19930;-76
2021/12/01 03:24:05;;;;;;;;;;;12.00;99.90;;;;;;4992447;28;19932;-78
2021/12/01 03:26:31;;;;;;;;;;;11.70;99.90;;;;;;4992473;28;20400;-77
2021/12/01 03:28:57;;;;;;;;;;;11.70;99.90;;;;;;4992758;28;19980;-79
2021/12/01 03:31:23;;;;;;;;;;;12.10;99.90;;;;;;4993125;28;19969;-78
2021/12/01 03:33:48;;;;;;;;;;;12.20;99.90;;;;;;4992441;28;19925;-77
2021/12/01 03:36:14;;;;;;;;;;;12.20;99.90;;;;;;4992623;28;20259;-77
2021/12/01 03:38:39;;;;;;;;;;;11.50;99.90;;;;;;4992153;28;19932;-78
2021/12/01 03:41:07;;;;;;;;;;;12.20;99.90;;;;;;4991434;28;21570;-77
2021/12/01 03:43:32;;;;;;;;;;;11.50;99.90;;;;;;4992192;28;19965;-79
2021/12/01 03:45:58;;;;;;;;;;;11.40;99.90;;;;;;4992409;28;19925;-78
2021/12/01 03:48:24;;;;;;;;;;;12.20;99.90;;;;;;4990851;28;20097;-78
2021/12/01 03:50:50;;;;;;;;;;;13.30;99.90;;;;;;4991259;28;20359;-77
2021/12/01 03:53:17;;;;;;;;;;;11.40;99.90;;;;;;4992480;28;19948;-77
2021/12/01 03:55:43;;;;;;;;;;;12.00;99.90;;;;;;4990828;28;20333;-77
2021/12/01 03:58:09;;;;;;;;;;;12.20;99.90;;;;;;4992359;28;19972;-77
2021/12/01 04:00:34;;;;;;;;;;;11.30;99.90;;;;;;4991706;28;20025;-78
2021/12/01 04:03:00;;;;;;;;;;;12.00;99.90;;;;;;4990470;28;20147;-76
2021/12/01 04:05:26;;;;;;;;;;;12.90;99.90;;;;;;4992035;28;19996;-79
2021/12/01 04:07:51;;;;;;;;;;;13.40;99.90;;;;;;4992046;28;19967;-78
2021/12/01 04:10:17;;;;;;;;;;;12.10;99.90;;;;;;4992137;28;20371;-78
2021/12/01 04:12:43;;;;;;;;;;;13.40;99.90;;;;;;4991900;28;19926;-77
2021/12/01 04:15:10;;;;;;;;;;;13.60;99.90;;;;;;4991553;28;20386;-77
2021/12/01 04:17:36;;;;;;;;;;;12.00;99.90;;;;;;4992386;28;20064;-77
2021/12/01 04:20:01;;;;;;;;;;;12.80;99.90;;;;;;4991649;28;20024;-76
2021/12/01 04:22:27;;;;;;;;;;;11.50;99.90;;;;;;4992064;28;20266;-76
2021/12/01 04:24:52;;;;;;;;;;;12.20;99.90;;;;;;4990745;28;19933;-77
2021/12/01 04:27:18;;;;;;;;;;;11.20;99.90;;;;;;4991783;28;19936;-78
2021/12/01 04:29:44;;;;;;;;;;;12.00;99.90;;;;;;4990870;28;19926;-76
2021/12/01 04:32:10;;;;;;;;;;;11.20;99.90;;;;;;4991075;28;19926;-77
2021/12/01 04:34:36;;;;;;;;;;;11.20;99.90;;;;;;4991703;28;19948;-76
2021/12/01 04:37:02;;;;;;;;;;;11.20;99.90;;;;;;4991771;28;19977;-77
2021/12/01 04:39:27;;;;;;;;;;;11.80;99.90;;;;;;4990101;28;19972;-76
2021/12/01 04:42:03;;;;;;;;;;;11.90;99.90;;;;;;4991543;28;19988;-76
2021/12/01 04:44:30;;;;;;;;;;;11.10;99.90;;;;;;4991440;28;19926;-77
2021/12/01 04:46:57;;;;;;;;;;;11.70;99.90;;;;;;4990457;28;19937;-78
2021/12/01 04:49:23;;;;;;;;;;;11.30;99.90;;;;;;4991528;28;19934;-77
2021/12/01 04:51:50;;;;;;;;;;;12.50;99.90;;;;;;4990109;28;20294;-79
2021/12/01 04:54:16;;;;;;;;;;;11.40;99.90;;;;;;4991713;28;19926;-78
2021/12/01 04:56:43;;;;;;;;;;;13.50;99.90;;;;;;4992101;28;19934;-77
2021/12/01 04:59:09;;;;;;;;;;;11.60;99.90;;;;;;4990089;28;19926;-78
2021/12/01 05:01:35;;;;;;;;;;;12.40;99.90;;;;;;4991841;28;19926;-78
2021/12/01 05:04:01;;;;;;;;;;;11.90;99.90;;;;;;4991240;28;20243;-77
2021/12/01 05:06:26;;;;;;;;;;;11.10;99.90;;;;;;4994784;28;19925;-79
2021/12/01 05:08:52;;;;;;;;;;;11.20;99.90;;;;;;4995566;28;20052;-80
2021/12/01 05:11:18;;;;;;;;;;;11.70;99.90;;;;;;4995186;28;19932;-77
2021/12/01 05:13:43;;;;;;;;;;;12.70;99.90;;;;;;4994015;28;20358;-81
2021/12/01 05:16:09;;;;;;;;;;;11.80;99.90;;;;;;4995216;28;20024;-80
2021/12/01 05:18:34;;;;;;;;;;;11.00;99.90;;;;;;4994245;28;19926;-78
2021/12/01 05:21:00;;;;;;;;;;;12.30;99.90;;;;;;4994048;28;19972;-78
2021/12/01 05:23:26;;;;;;;;;;;11.10;99.90;;;;;;4995049;28;19926;-77
2021/12/01 05:25:51;;;;;;;;;;;11.60;99.90;;;;;;4994837;28;19926;-77
2021/12/01 05:28:17;;;;;;;;;;;12.30;99.90;;;;;;4994730;28;19926;-77
2021/12/01 05:30:43;;;;;;;;;;;11.90;99.90;;;;;;4993825;28;20045;-77
2021/12/01 05:33:09;;;;;;;;;;;11.30;99.90;;;;;;4993586;28;20343;-78
2021/12/01 05:35:36;;;;;;;;;;;13.00;99.90;;;;;;4995034;28;20282;-78
2021/12/01 05:38:02;;;;;;;;;;;11.70;99.90;;;;;;4994189;28;19980;-76
2021/12/01 05:40:28;;;;;;;;;;;11.90;99.90;;;;;;4994621;28;20386;-80
2021/12/01 05:42:53;;;;;;;;;;;11.20;99.90;;;;;;4994207;28;19933;-77
2021/12/01 05:45:19;;;;;;;;;;;12.20;99.90;;;;;;4977766;28;20371;-79
2021/12/01 05:47:44;;;;;;;;;;;13.40;99.90;;;;;;4995037;28;20016;-78
2021/12/01 05:50:11;;;;;;;;;;;11.80;99.90;;;;;;4994690;28;19933;-78
2021/12/01 05:52:37;;;;;;;;;;;11.20;99.90;;;;;;4995161;28;19926;-78
2021/12/01 05:55:03;;;;;;;;;;;10.70;99.90;;;;;;4994264;28;19972;-78
2021/12/01 05:57:28;;;;;;;;;;;11.60;99.90;;;;;;4994382;28;19933;-78
2021/12/01 05:59:54;;;;;;;;;;;11.70;99.90;;;;;;4994470;28;19926;-79
2021/12/01 06:02:19;;;;;;;;;;;11.60;99.90;;;;;;4993260;28;19926;-79
2021/12/01 06:04:45;;;;;;;;;;;11.70;99.90;;;;;;4993213;28;19925;-79
2021/12/01 06:07:10;;;;;;;;;;;10.90;99.90;;;;;;4994426;28;19956;-77
2021/12/01 06:09:36;;;;;;;;;;;12.30;99.90;;;;;;4994803;28;19999;-78
2021/12/01 06:12:02;;;;;;;;;;;10.60;99.90;;;;;;4994476;28;19926;-80
2021/12/01 06:14:27;;;;;;;;;;;11.10;99.90;;;;;;4994353;28;19949;-79
2021/12/01 06:16:53;;;;;;;;;;;10.70;99.90;;;;;;4994464;28;20013;-78
2021/12/01 06:19:19;;;;;;;;;;;11.70;99.90;;;;;;4992761;28;19930;-78
2021/12/01 06:21:45;;;;;;;;;;;11.50;99.90;;;;;;4994762;28;19932;-77
2021/12/01 06:24:10;;;;;;;;;;;13.50;99.90;;;;;;4994296;28;19977;-80
2021/12/01 06:26:36;;;;;;;;;;;10.50;99.90;;;;;;4994538;28;20025;-79
2021/12/01 06:29:02;;;;;;;;;;;12.60;99.90;;;;;;4993975;28;20017;-78
2021/12/01 06:31:27;;;;;;;;;;;11.70;99.90;;;;;;4993212;28;19926;-78
2021/12/01 06:33:53;;;;;;;;;;;11.60;99.90;;;;;;4993774;28;19932;-81
2021/12/01 06:36:18;;;;;;;;;;;12.30;99.90;;;;;;4994085;28;19930;-78
2021/12/01 06:38:44;;;;;;;;;;;8.20;99.90;;;;;;4993079;28;19976;-80
2021/12/01 06:41:10;;;;;;;;;;;13.80;99.90;;;;;;4994011;28;20028;-78
2021/12/01 06:43:35;;;;;;;;;;;11.80;99.90;;;;;;4994046;28;20366;-76
2021/12/01 06:46:01;;;;;;;;;;;10.90;99.90;;;;;;4994157;28;19933;-80
2021/12/01 06:48:26;;;;;;;;;;;11.70;99.90;;;;;;4993733;28;19926;-79
2021/12/01 06:50:53;;;;;;;;;;;10.80;99.90;;;;;;4994451;28;19926;-80
2021/12/01 06:53:18;;;;;;;;;;;11.40;99.90;;;;;;4993340;28;20026;-80
2021/12/01 06:55:44;;;;;;;;;;;11.20;99.90;;;;;;4994350;28;20003;-79
2021/12/01 06:58:09;;;;;;;;;;;15.00;99.90;;;;;;4993520;28;19929;-77
2021/12/01 07:00:35;;;;;;;;;;;12.10;99.90;;;;;;4993788;28;19948;-80
2021/12/01 07:03:01;;;;;;;;;;;12.50;99.90;;;;;;4993154;28;20240;-78
2021/12/01 07:05:26;;;;;;;;;;;10.50;99.90;;;;;;4993300;28;19926;-79
2021/12/01 07:07:52;;;;;;;;;;;10.50;99.90;;;;;;4993524;28;19934;-78
2021/12/01 07:10:18;;;;;;;;;;;12.10;99.90;;;;;;4991621;28;20021;-79
2021/12/01 07:12:44;;;;;;;;;;;10.40;99.90;;;;;;4992451;28;20013;-77
2021/12/01 07:15:10;;;;;;;;;;;10.60;99.90;;;;;;4993425;28;19930;-79
2021/12/01 07:17:36;;;;;;;;;;;11.40;99.90;;;;;;4993481;28;20375;-79
2021/12/01 07:20:03;;;;;;;;;;;11.20;99.90;;;;;;4993121;28;20083;-77
2021/12/01 07:22:28;;;;;;;;;;;10.40;99.90;;;;;;4975520;28;19926;-80
2021/12/01 07:24:54;;;;;;;;;;;10.80;99.90;;;;;;4993078;28;19932;-77
2021/12/01 07:27:19;;;;;;;;;;;11.70;99.90;;;;;;4991688;28;19988;-79
2021/12/01 07:29:45;;;;;;;;;;;11.40;99.90;;;;;;4993133;28;19926;-80
2021/12/01 07:32:11;;;;;;;;;;;10.40;99.90;;;;;;4992632;28;19976;-78
2021/12/01 07:34:43;;;;;;;;;;;11.40;99.90;;;;;;4976039;28;19980;-79
2021/12/01 07:37:10;;;;;;;;;;;10.50;99.90;;;;;;4991788;28;19930;-80
2021/12/01 07:39:35;;;;;;;;;;;10.50;99.90;;;;;;4992872;28;19972;-81
2021/12/01 07:42:01;;;;;;;;;;;12.50;99.90;;;;;;4993100;28;20364;-79
2021/12/01 07:44:27;;;;;;;;;;;10.60;99.90;;;;;;4992707;28;19929;-81
2021/12/01 07:46:52;;;;;;;;;;;10.50;99.90;;;;;;4993103;28;19977;-80
2021/12/01 07:49:19;;;;;;;;;;;11.60;99.90;;;;;;4992545;28;19933;-80
2021/12/01 07:51:45;;;;;;;;;;;11.10;99.90;;;;;;4993150;28;19926;-80
2021/12/01 07:54:10;;;;;;;;;;;11.40;99.90;;;;;;4993034;28;19933;-81
2021/12/01 07:56:36;;;;;;;;;;;12.40;99.90;;;;;;4993175;28;20291;-80
2021/12/01 07:59:02;;;;;;;;;;;11.30;99.90;;;;;;4992722;28;19925;-80
2021/12/01 08:01:27;;;;;;;;;;;12.30;99.90;;;;;;4991795;28;19981;-80
2021/12/01 08:03:53;;;;;;;;;;;10.50;99.90;;;;;;4986211;28;19933;-79
2021/12/01 08:06:18;;;;;;;;;;;10.90;99.90;;;;;;4990921;28;19981;-80
2021/12/01 08:08:44;;;;;;;;;;;10.40;99.90;;;;;;4992455;28;19926;-80
2021/12/01 08:11:10;;;;;;;;;;;11.30;99.90;;;;;;4992446;28;19925;-81
2021/12/01 08:13:35;;;;;;;;;;;12.20;99.90;;;;;;4992943;28;20021;-81
2021/12/01 08:16:01;;;;;;;;;;;11.10;99.90;;;;;;4992213;28;20267;-81
2021/12/01 08:18:27;;;;;;;;;;;12.90;99.90;;;;;;4991965;28;19926;-80
2021/12/01 08:20:52;;;;;;;;;;;10.40;99.90;;;;;;4992645;28;20433;-80
2021/12/01 08:23:18;;;;;;;;;;;12.50;99.90;;;;;;4992434;28;20343;-80
2021/12/01 08:25:43;;;;;;;;;;;10.90;99.90;;;;;;4991256;28;19926;-81
2021/12/01 08:28:09;;;;;;;;;;;10.50;99.90;;;;;;4992067;28;19930;-82
2021/12/01 08:30:34;;;;;;;;;;;11.40;99.90;;;;;;4990688;28;20287;-81
2021/12/01 08:33:00;;;;;;;;;;;12.60;99.90;;;;;;4992262;28;19925;-82
2021/12/01 08:35:26;;;;;;;;;;;11.60;99.90;;;;;;4990337;28;20308;-82
2021/12/01 08:37:51;;;;;;;;;;;10.60;99.90;;;;;;4994070;28;20076;-81
2021/12/01 08:40:18;;;;;;;;;;;11.30;99.90;;;;;;4998555;28;19932;-83
2021/12/01 08:42:45;;;;;;;;;;;13.30;99.90;;;;;;4998925;28;19937;-82
2021/12/01 08:45:10;;;;;;;;;;;10.50;99.90;;;;;;4998938;28;19933;-81
2021/12/01 08:47:36;;;;;;;;;;;13.50;99.90;;;;;;4998324;28;19925;-81
2021/12/01 08:50:02;;;;;;;;;;;13.80;99.90;;;;;;4998562;28;19937;-81
2021/12/01 08:52:28;;;;;;;;;;;10.60;99.90;;;;;;4997234;28;19937;-82
2021/12/01 08:54:53;;;;;;;;;;;11.60;99.90;;;;;;4997545;28;19926;-79
2021/12/01 08:57:19;;;;;;;;;;;11.80;99.90;;;;;;4998407;28;20008;-81
2021/12/01 08:59:45;;;;;;;;;;;11.50;99.90;;;;;;4998540;28;19972;-81
2021/12/01 09:02:13;;;;;;;;;;;12.40;99.90;;;;;;4998736;28;19929;-81
2021/12/01 09:04:39;;;;;;;;;;;10.30;99.90;;;;;;4996846;28;20009;-81
2021/12/01 09:07:04;;;;;;;;;;;10.60;99.90;;;;;;4998324;28;20036;-80
2021/12/01 09:09:30;;;;;;;;;;;10.30;99.90;;;;;;4998029;28;19926;-81
2021/12/01 09:11:56;;;;;;;;;;;10.50;99.90;;;;;;4998158;28;20294;-80
2021/12/01 09:14:26;;;;;;;;;;;10.40;99.90;;;;;;4998176;28;19926;-79
2021/12/01 09:16:53;;;;;;;;;;;10.40;99.90;;;;;;4998419;28;20028;-79
2021/12/01 09:19:19;;;;;;;;;;;10.80;99.90;;;;;;4998164;28;19934;-79
2021/12/01 09:21:45;;;;;;;;;;;11.30;99.90;;;;;;4997812;28;19925;-79
2021/12/01 09:24:11;;;;;;;;;;;10.70;99.90;;;;;;4998499;28;20342;-80
2021/12/01 09:26:37;;;;;;;;;;;10.20;99.90;;;;;;4998608;28;20110;-79
2021/12/01 09:29:03;;;;;;;;;;;11.10;99.90;;;;;;4997141;28;19996;-79
2021/12/01 09:31:29;;;;;;;;;;;11.10;99.90;;;;;;4998391;28;19969;-79
2021/12/01 09:33:55;;;;;;;;;;;12.40;99.90;;;;;;4998291;28;19925;-78
2021/12/01 09:36:21;;;;;;;;;;;12.00;99.90;;;;;;4998431;28;19926;-77
2021/12/01 09:38:47;;;;;;;;;;;11.10;99.90;;;;;;4998199;28;20382;-78
2021/12/01 09:41:12;;;;;;;;;;;10.20;99.90;;;;;;4998671;28;20378;-77
2021/12/01 09:43:38;;;;;;;;;;;10.90;99.90;;;;;;4998101;28;19925;-78
2021/12/01 09:46:05;;;;;;;;;;;11.10;99.90;;;;;;4998477;28;19945;-79
2021/12/01 09:48:32;;;;;;;;;;;11.00;99.90;;;;;;4996859;28;19972;-78
2021/12/01 09:50:58;;;;;;;;;;;9.80;99.90;;;;;;4994047;28;20283;-79
2021/12/01 09:53:23;;;;;;;;;;;11.10;99.90;;;;;;4994773;28;19926;-78
2021/12/01 09:55:49;;;;;;;;;;;10.00;99.90;;;;;;4995107;28;19960;-79
2021/12/01 09:58:16;;;;;;;;;;;10.90;99.90;;;;;;4995245;28;19926;-79
2021/12/01 10:00:44;;;;;;;;;;;12.50;99.90;;;;;;4994590;28;20024;-78
2021/12/01 10:03:10;;;;;;;;;;;12.00;99.90;;;;;;4994980;28;19930;-77
2021/12/01 10:05:51;;;;;;;;;;;11.20;99.90;;;;;;4994272;28;19980;-78
2021/12/01 10:08:46;;;;;;;;;;;9.90;99.90;;;;;;4994034;28;19977;-76
2021/12/01 10:11:13;;;;;;;;;;;11.10;99.90;;;;;;4985854;28;20434;-77
2021/12/01 10:13:40;;;;;;;;;;;11.80;99.90;;;;;;4994459;28;19937;-78
2021/12/01 10:16:07;;;;;;;;;;;11.20;99.90;;;;;;4995138;28;19926;-77
2021/12/01 10:18:40;;;;;;;;;;;11.60;99.90;;;;;;4993841;28;20020;-77
2021/12/01 10:21:16;;;;;;;;;;;11.00;99.90;;;;;;4994609;28;20354;-79
2021/12/01 10:23:53;;;;;;;;;;;10.60;99.90;;;;;;4994520;28;20017;-78
2021/12/01 10:26:18;;;;;;;;;;;11.10;99.90;;;;;;4994643;28;19925;-78
2021/12/01 10:29:05;;;;;;;;;;;11.40;99.90;;;;;;4993831;28;20314;-78
2021/12/01 10:31:34;;;;;;;;;;;10.30;99.90;;;;;;4994294;28;19929;-79
2021/12/01 10:34:32;;;;;;;;;;;11.40;99.90;;;;;;4994103;28;19930;-78
2021/12/01 10:37:09;;;;;;;;;;;10.20;99.90;;;;;;4971499;28;20299;-79
2021/12/01 10:39:35;;;;;;;;;;;10.00;99.90;;;;;;4976661;28;19926;-78
2021/12/01 10:42:05;;;;;;;;;;;10.70;99.90;;;;;;4993210;28;19926;-77
2021/12/01 10:44:32;;;;;;;;;;;10.10;99.90;;;;;;4993966;28;19925;-78
2021/12/01 10:47:05;;;;;;;;;;;10.10;99.90;;;;;;4994020;28;19930;-75
2021/12/01 10:49:39;;;;;;;;;;;12.30;99.90;;;;;;4993365;28;20405;-77
2021/12/01 10:52:05;;;;;;;;;;;9.90;99.90;;;;;;4994159;28;19965;-77
2021/12/01 10:54:31;;;;;;;;;;;11.10;99.90;;;;;;4992297;28;19948;-77
2021/12/01 10:57:20;;;;;;;;;;;9.80;99.90;;;;;;4994001;28;19926;-77
2021/12/01 10:59:47;;;;;;;;;;;11.20;99.90;;;;;;4992233;28;20012;-77
2021/12/01 11:02:12;;;;;;;;;;;11.00;99.90;;;;;;4992524;28;19948;-77
2021/12/01 11:04:43;;;;;;;;;;;9.90;99.90;;;;;;4993260;28;19926;-77
2021/12/01 11:07:28;;;;;;;;;;;10.90;99.90;;;;;;4993641;28;20088;-77
2021/12/01 11:10:13;;;;;;;;;;;11.00;99.90;;;;;;4993007;28;20313;-76
2021/12/01 11:12:39;;;;;;;;;;;9.90;99.90;;;;;;4991926;28;19934;-77
2021/12/01 11:15:20;;;;;;;;;;;11.70;99.90;;;;;;4992161;28;19997;-77
2021/12/01 11:17:46;;;;;;;;;;;10.30;99.90;;;;;;4993030;28;20121;-77
2021/12/01 11:20:30;;;;;;;;;;;11.20;99.90;;;;;;4991954;28;20374;-76
2021/12/01 11:23:05;;;;;;;;;;;12.20;99.90;;;;;;4993592;28;20358;-76
2021/12/01 11:25:32;;;;;;;;;;;10.00;99.90;;;;;;4993233;28;19925;-77
2021/12/01 11:27:59;;;;;;;;;;;12.60;99.90;;;;;;4993296;28;19932;-78
2021/12/01 11:30:24;;;;;;;;;;;10.90;99.90;;;;;;4993253;28;19925;-77
2021/12/01 11:32:50;;;;;;;;;;;10.00;99.90;;;;;;4992705;28;20350;-77
2021/12/01 11:35:16;;;;;;;;;;;11.00;99.90;;;;;;4993100;28;19926;-77
2021/12/01 11:37:41;;;;;;;;;;;11.00;99.90;;;;;;4993440;28;19926;-77
2021/12/01 11:40:07;;;;;;;;;;;13.10;99.90;;;;;;4992262;28;19980;-78
2021/12/01 11:42:33;;;;;;;;;;;10.00;99.90;;;;;;4992740;28;19930;-78
2021/12/01 11:44:59;;;;;;;;;;;12.30;99.90;;;;;;4993301;28;19930;-78
2021/12/01 11:47:25;;;;;;;;;;;11.00;99.90;;;;;;4992639;28;19926;-77
2021/12/01 11:49:51;;;;;;;;;;;10.80;99.90;;;;;;4992069;28;20378;-78
2021/12/01 11:52:21;;;;;;;;;;;10.00;99.90;;;;;;4991808;28;19925;-78
2021/12/01 11:54:46;;;;;;;;;;;10.00;99.90;;;;;;4991690;28;20481;-78
2021/12/01 11:57:12;;;;;;;;;;;10.40;99.90;;;;;;4991919;28;19930;-78
2021/12/01 11:59:44;;;;;;;;;;;10.40;99.90;;;;;;4991739;28;19979;-78
2021/12/01 12:02:10;;;;;;;;;;;10.70;99.90;;;;;;4992801;28;19971;-78
2021/12/01 12:04:35;;;;;;;;;;;10.80;99.90;;;;;;4992060;28;19930;-77
2021/12/01 12:07:22;;;;;;;;;;;11.20;99.90;;;;;;4992844;28;19926;-78
2021/12/01 12:10:05;;;;;;;;;;;10.10;99.90;;;;;;4985010;28;20251;-76
2021/12/01 12:13:00;;;;;;;;;;;9.50;99.90;;;;;;4992001;28;19975;-78
2021/12/01 12:15:31;;;;;;;;;;;10.30;99.90;;;;;;4990479;28;20028;-77
2021/12/01 12:17:57;;;;;;;;;;;9.10;99.90;;;;;;4992102;28;20469;-77
2021/12/01 12:20:27;;;;;;;;;;;10.20;99.90;;;;;;4992368;28;20032;-77
2021/12/01 12:22:54;;;;;;;;;;;11.50;99.90;;;;;;4974849;28;20350;-77
2021/12/01 12:25:38;;;;;;;;;;;10.10;99.90;;;;;;4992528;28;19926;-77
2021/12/01 12:28:20;;;;;;;;;;;10.10;99.90;;;;;;4990912;28;19926;-77
2021/12/01 12:30:46;;;;;;;;;;;9.40;99.90;;;;;;4992405;28;19933;-76
2021/12/01 12:33:18;;;;;;;;;;;9.30;99.90;;;;;;4992312;28;20004;-76
2021/12/01 12:35:44;;;;;;;;;;;9.50;99.90;;;;;;4992039;28;19926;-76
2021/12/01 12:38:11;;;;;;;;;;;10.10;99.90;;;;;;4992386;28;19926;-76
2021/12/01 12:40:38;;;;;;;;;;;11.50;99.90;;;;;;4991864;28;19932;-76
2021/12/01 12:43:14;;;;;;;;;;;11.10;99.90;;;;;;4991333;28;20289;-75
2021/12/01 12:45:59;;;;;;;;;;;8.80;99.90;;;;;;4992233;28;19930;-75
2021/12/01 12:48:27;;;;;;;;;;;9.40;99.90;;;;;;4991779;28;19925;-77
2021/12/01 12:51:11;;;;;;;;;;;10.40;99.90;;;;;;4991806;28;19933;-76
2021/12/01 12:53:57;;;;;;;;;;;9.10;99.90;;;;;;4991148;28;20408;-77
2021/12/01 12:56:24;;;;;;;;;;;8.80;99.90;;;;;;4990933;28;19988;-75
2021/12/01 12:58:50;;;;;;;;;;;9.60;99.90;;;;;;4991497;28;20323;-76
2021/12/01 13:01:25;;;;;;;;;;;10.00;99.90;;;;;;4992454;28;19925;-76
2021/12/01 13:03:52;;;;;;;;;;;10.00;99.90;;;;;;4991309;28;20346;-75
2021/12/01 13:06:26;;;;;;;;;;;9.10;99.90;;;;;;4990156;28;19926;-77
2021/12/01 13:08:52;;;;;;;;;;;10.00;99.90;;;;;;4990166;28;20083;-74
2021/12/01 13:11:20;;;;;;;;;;;9.00;99.90;;;;;;4991624;28;20021;-75
2021/12/01 13:13:52;;;;;;;;;;;9.20;99.90;;;;;;4991618;28;20012;-75
2021/12/01 13:16:18;;;;;;;;;;;9.00;99.90;;;;;;4991610;28;20471;-75
2021/12/01 13:18:45;;;;;;;;;;;9.40;99.90;;;;;;4989922;28;20013;-76
2021/12/01 13:21:13;;;;;;;;;;;10.30;99.90;;;;;;4992102;28;19930;-76
2021/12/01 13:23:41;;;;;;;;;;;9.00;99.90;;;;;;4991740;28;20076;-76
2021/12/01 13:26:09;;;;;;;;;;;11.50;99.90;;;;;;4994501;28;19930;-75
2021/12/01 13:28:47;;;;;;;;;;;9.00;99.90;;;;;;4995487;28;19925;-76
2021/12/01 13:31:12;;;;;;;;;;;10.00;99.90;;;;;;4995508;28;19925;-76
2021/12/01 13:33:57;;;;;;;;;;;10.30;99.90;;;;;;4995365;28;19980;-75
2021/12/01 13:36:23;;;;;;;;;;;9.80;99.90;;;;;;4994083;28;20398;-75
2021/12/01 13:38:59;;;;;;;;;;;9.00;99.90;;;;;;4994676;28;19938;-76
2021/12/01 13:41:28;;;;;;;;;;;9.30;99.90;;;;;;4994618;28;20016;-78
2021/12/01 13:44:00;;;;;;;;;;;11.40;99.90;;;;;;4993863;28;19973;-76
2021/12/01 13:46:26;;;;;;;;;;;11.40;99.90;;;;;;4993058;28;19925;-76
2021/12/01 13:48:56;;;;;;;;;;;9.90;99.90;;;;;;4992687;28;19933;-76
2021/12/01 13:51:22;;;;;;;;;;;11.00;99.90;;;;;;4993479;28;20441;-75
2021/12/01 13:53:48;;;;;;;;;;;10.20;99.90;;;;;;4993040;28;20366;-76
2021/12/01 13:56:18;;;;;;;;;;;9.20;99.90;;;;;;4994218;28;20024;-76
2021/12/01 13:58:45;;;;;;;;;;;12.90;99.90;;;;;;4992911;28;19925;-76
2021/12/01 14:01:15;;;;;;;;;;;9.00;99.90;;;;;;4992999;28;20378;-74
2021/12/01 14:03:52;;;;;;;;;;;8.80;99.90;;;;;;4992970;28;19926;-77
2021/12/01 14:06:19;;;;;;;;;;;9.70;99.90;;;;;;4993619;28;19925;-76
2021/12/01 14:09:05;;;;;;;;;;;11.20;99.90;;;;;;4993137;28;19933;-76
2021/12/01 14:11:37;;;;;;;;;;;9.70;99.90;;;;;;4984318;28;19993;-78
2021/12/01 14:14:04;;;;;;;;;;;8.70;99.90;;;;;;4993403;28;20118;-76
2021/12/01 14:16:32;;;;;;;;;;;9.30;99.90;;;;;;4993317;28;19929;-75
2021/12/01 14:18:58;;;;;;;;;;;10.00;99.90;;;;;;4992854;28;19925;-76
2021/12/01 14:21:24;;;;;;;;;;;10.40;99.90;;;;;;4994266;28;20358;-74
2021/12/01 14:23:50;;;;;;;;;;;9.50;99.90;;;;;;4993516;28;19936;-77